Terminal Aerodrome Forecast
Issued by NWS

Home | Current Version | Previous Version | Text Only | Print | Product List | Glossary On
Versions: 1 2 3 4 5 6 7 8 9 10 11 12 13 14 15 16 17 18 19 20 21 22 23 24 25 26 27 28 29 30 31 32 33 34 35 36 37 38 39 40
000
FTUS46 KOTX 200535
TAFCOE
TAF
KCOE 200535Z 2006/2106 18005KT P6SM OVC050
     FM200900 18005KT P6SM VCSH BKN030 OVC050
     FM201300 19004KT 4SM -SN BR OVC015
      TEMPO 2014/2018 1 1/2SM -SN BR OVC009
     FM202200 21006KT P6SM VCSH BKN025
     FM210200 19005KT P6SM BKN050
     FM210400 20004KT P6SM BKN025=

USA.gov is the U.S. government's official web portal to all federal, state and local government web resources and services.